createdAt,value
2022-11-24T00:01:32.072Z,77.73
2022-11-24T00:04:05.570Z,77.44
2022-11-24T00:06:36.201Z,77.72
2022-11-24T00:09:05.635Z,77.42
2022-11-24T00:11:36.849Z,77.77
2022-11-24T00:14:06.458Z,77.43
2022-11-24T00:16:37.238Z,77.58
2022-11-24T00:19:11.429Z,77.72
2022-11-24T00:21:41.933Z,77.56
2022-11-24T00:24:10.517Z,77.55
2022-11-24T00:26:39.001Z,77.66
2022-11-24T00:29:08.099Z,77.30
2022-11-24T00:31:41.692Z,77.57
2022-11-24T00:34:14.784Z,77.74
2022-11-24T00:36:43.832Z,77.29
2022-11-24T00:39:14.409Z,77.67
2022-11-24T00:41:43.305Z,77.46
2022-11-24T00:44:11.680Z,77.49
2022-11-24T00:46:40.392Z,77.50
2022-11-24T00:49:09.455Z,77.66
2022-11-24T00:51:37.730Z,77.15
2022-11-24T00:54:07.032Z,77.67
2022-11-24T00:56:35.306Z,77.73
2022-11-24T00:59:04.441Z,77.52
2022-11-24T01:01:32.666Z,77.40
2022-11-24T01:04:02.083Z,77.80
2022-11-24T01:06:31.596Z,77.85
2022-11-24T01:09:00.170Z,77.74
2022-11-24T01:11:54.454Z,77.31
2022-11-24T01:14:25.290Z,77.49
2022-11-24T01:16:54.605Z,77.50
2022-11-24T01:19:23.488Z,77.62
2022-11-24T01:21:51.758Z,76.91
2022-11-24T01:24:20.134Z,77.50
2022-11-24T01:26:48.410Z,77.76
2022-11-24T01:29:16.686Z,77.55
2022-11-24T01:31:44.965Z,77.33
2022-11-24T01:34:13.855Z,77.58
2022-11-24T01:36:42.130Z,77.45
2022-11-24T01:39:10.721Z,77.68
2022-11-24T01:41:38.987Z,77.71
2022-11-24T01:44:28.360Z,77.38
2022-11-24T01:47:08.718Z,77.54
2022-11-24T01:49:45.186Z,77.76
2022-11-24T01:52:22.064Z,77.85
2022-11-24T01:54:56.279Z,77.62
2022-11-24T01:57:39.094Z,77.58
2022-11-24T02:00:10.849Z,77.50
2022-11-24T02:02:45.049Z,77.68
2022-11-24T02:05:22.151Z,77.50
2022-11-24T02:07:53.151Z,77.59
2022-11-24T02:10:22.285Z,77.85
2022-11-24T02:12:55.168Z,77.71
2022-11-24T02:15:23.769Z,77.94
2022-11-24T02:17:52.131Z,77.60
2022-11-24T02:20:20.509Z,77.71
2022-11-24T02:23:03.632Z,77.68
2022-11-24T02:25:47.678Z,77.62
2022-11-24T02:28:19.744Z,77.47
2022-11-24T02:30:49.417Z,77.54
2022-11-24T02:33:18.754Z,77.49
2022-11-24T02:35:47.034Z,77.37
2022-11-24T02:38:15.407Z,77.58
2022-11-24T02:40:47.472Z,77.93
2022-11-24T02:43:23.841Z,78.09
2022-11-24T02:45:52.170Z,78.15
2022-11-24T02:48:20.528Z,77.59
2022-11-24T02:50:48.769Z,78.05
2022-11-24T02:53:17.148Z,78.17
2022-11-24T02:55:45.527Z,78.22
2022-11-24T02:58:15.337Z,78.10
2022-11-24T03:00:43.715Z,77.93
2022-11-24T03:03:12.281Z,77.93
2022-11-24T03:05:41.088Z,77.93
2022-11-24T03:08:09.364Z,77.96
2022-11-24T03:10:37.638Z,77.52
2022-11-24T03:13:06.268Z,77.56
2022-11-24T03:15:35.044Z,77.87
2022-11-24T03:18:03.593Z,77.95
2022-11-24T03:20:31.869Z,77.80
2022-11-24T03:23:00.143Z,77.85
2022-11-24T03:25:28.420Z,77.48
2022-11-24T03:27:58.521Z,77.60
2022-11-24T03:30:26.814Z,77.65
2022-11-24T03:32:55.091Z,77.44
2022-11-24T03:35:24.085Z,77.70
2022-11-24T03:37:52.361Z,77.95
2022-11-24T03:40:20.641Z,78.20
2022-11-24T03:42:49.019Z,78.24
2022-11-24T03:45:44.194Z,78.51
2022-11-24T03:48:06.711Z,78.52
2022-11-24T03:50:34.946Z,78.63
2022-11-24T03:53:03.216Z,78.60
2022-11-24T03:55:31.489Z,78.46
2022-11-24T03:57:59.970Z,78.64
2022-11-24T04:00:28.593Z,78.98
2022-11-24T04:02:56.846Z,79.00
2022-11-24T04:05:25.721Z,78.98
2022-11-24T04:07:57.893Z,78.80
2022-11-24T04:10:26.163Z,78.62
2022-11-24T04:12:54.747Z,79.12
2022-11-24T04:15:23.022Z,79.24
2022-11-24T04:17:51.503Z,79.38
2022-11-24T04:20:20.393Z,79.19
2022-11-24T04:22:50.932Z,79.00
2022-11-24T04:25:19.300Z,79.03
2022-11-24T04:27:52.272Z,79.07
2022-11-24T04:30:21.528Z,78.79
2022-11-24T04:32:50.067Z,78.73
2022-11-24T04:35:19.060Z,78.87
2022-11-24T04:37:47.950Z,78.80
2022-11-24T04:40:17.028Z,79.07
2022-11-24T04:42:53.818Z,78.98
2022-11-24T04:45:23.634Z,79.09
2022-11-24T04:47:52.118Z,79.19
2022-11-24T04:50:21.105Z,78.71
2022-11-24T04:52:49.391Z,78.59
2022-11-24T04:55:17.766Z,78.78
2022-11-24T04:57:46.038Z,78.61
2022-11-24T05:00:15.037Z,78.72
2022-11-24T05:02:43.407Z,78.55
2022-11-24T05:05:11.890Z,78.42
2022-11-24T05:07:40.250Z,78.58
2022-11-24T05:10:28.095Z,78.35
2022-11-24T05:12:59.620Z,78.44
2022-11-24T05:15:28.335Z,78.52
2022-11-24T05:17:57.349Z,78.38
2022-11-24T05:20:25.607Z,78.36
2022-11-24T05:22:53.775Z,78.34
2022-11-24T05:25:21.950Z,78.52
2022-11-24T05:27:50.328Z,78.43
2022-11-24T05:30:18.602Z,78.34
2022-11-24T05:32:46.776Z,78.13
2022-11-24T05:35:15.361Z,78.23
2022-11-24T05:37:43.534Z,78.08
2022-11-24T05:40:11.707Z,78.22
2022-11-24T05:42:47.057Z,78.21
2022-11-24T05:45:19.626Z,78.28
2022-11-24T05:47:50.055Z,77.89
2022-11-24T05:50:20.580Z,78.34
2022-11-24T05:52:49.615Z,78.39
2022-11-24T05:55:19.793Z,78.45
2022-11-24T05:57:48.062Z,78.20
2022-11-24T06:00:18.303Z,78.37
2022-11-24T06:02:46.535Z,78.59
2022-11-24T06:05:15.041Z,78.71
2022-11-24T06:07:43.407Z,78.69
2022-11-24T06:10:11.900Z,78.89
2022-11-24T06:12:39.970Z,78.66
2022-11-24T06:15:09.397Z,78.31
2022-11-24T06:17:38.879Z,78.33
2022-11-24T06:20:08.587Z,78.35
2022-11-24T06:22:37.786Z,78.39
2022-11-24T06:25:06.771Z,78.19
2022-11-24T06:27:34.848Z,78.23
2022-11-24T06:30:04.148Z,78.35
2022-11-24T06:32:32.426Z,78.40
2022-11-24T06:35:00.600Z,78.17
2022-11-24T06:37:28.982Z,78.32
2022-11-24T06:39:57.356Z,78.71
2022-11-24T06:42:25.529Z,79.16
2022-11-24T06:44:53.908Z,79.30
2022-11-24T06:47:22.284Z,79.28
2022-11-24T06:49:50.563Z,79.07
2022-11-24T06:52:18.735Z,78.98
2022-11-24T06:54:46.911Z,78.85
2022-11-24T06:57:14.981Z,79.04
2022-11-24T06:59:43.359Z,79.10
2022-11-24T07:02:11.538Z,79.18
2022-11-24T07:04:39.705Z,79.06
2022-11-24T07:07:07.973Z,79.31
2022-11-24T07:09:36.359Z,79.42
2022-11-24T07:12:06.078Z,79.26
2022-11-24T07:14:34.368Z,79.18
2022-11-24T07:17:04.874Z,79.22
2022-11-24T07:19:33.258Z,79.40
2022-11-24T07:22:01.429Z,79.56
2022-11-24T07:24:29.600Z,79.52
2022-11-24T07:26:57.671Z,79.58
2022-11-24T07:29:25.843Z,79.35
2022-11-24T07:31:54.151Z,79.39
2022-11-24T07:34:22.399Z,79.04
2022-11-24T07:36:50.569Z,79.15
2022-11-24T07:39:18.681Z,79.20
2022-11-24T07:41:46.815Z,79.16
2022-11-24T07:44:14.887Z,79.03
2022-11-24T07:46:43.059Z,78.85
2022-11-24T07:49:11.243Z,78.85
2022-11-24T07:51:39.307Z,78.80
2022-11-24T07:54:07.477Z,78.53
2022-11-24T07:56:35.752Z,78.69
2022-11-24T07:59:04.313Z,78.91
2022-11-24T08:01:32.643Z,78.60
2022-11-24T08:04:02.277Z,78.81
2022-11-24T08:06:39.394Z,79.29
2022-11-24T08:09:09.011Z,79.07
2022-11-24T08:11:37.082Z,79.02
2022-11-24T08:14:05.460Z,78.83
2022-11-24T08:16:33.949Z,78.74
2022-11-24T08:19:02.114Z,79.09
2022-11-24T08:21:30.289Z,79.09
2022-11-24T08:23:58.786Z,79.08
2022-11-24T08:26:27.265Z,78.97
2022-11-24T08:28:59.831Z,78.80
2022-11-24T08:31:34.027Z,78.70
2022-11-24T08:34:04.162Z,78.94
2022-11-24T08:36:33.563Z,78.81
2022-11-24T08:39:02.589Z,78.71
2022-11-24T08:41:31.762Z,78.76
2022-11-24T08:43:59.928Z,78.84
2022-11-24T08:46:28.371Z,78.83
2022-11-24T08:48:56.992Z,78.89
2022-11-24T08:51:27.030Z,78.86
2022-11-24T08:54:00.198Z,78.71
2022-11-24T08:56:30.830Z,78.82
2022-11-24T08:58:59.757Z,78.73
2022-11-24T09:01:29.338Z,79.22
2022-11-24T09:03:58.135Z,79.38
2022-11-24T09:06:31.066Z,79.21
2022-11-24T09:09:00.171Z,79.31
2022-11-24T09:11:28.882Z,79.48
2022-11-24T09:13:56.954Z,79.30
2022-11-24T09:16:28.082Z,78.82
2022-11-24T09:19:05.075Z,79.21
2022-11-24T09:21:37.864Z,79.03
2022-11-24T09:24:07.538Z,79.20
2022-11-24T09:26:40.621Z,79.10
2022-11-24T09:29:12.818Z,79.33
2022-11-24T09:31:41.204Z,79.25
2022-11-24T09:34:13.676Z,79.16
2022-11-24T09:36:42.525Z,79.33
2022-11-24T09:39:11.542Z,79.39
2022-11-24T09:41:44.446Z,79.52
2022-11-24T09:44:33.814Z,79.52
2022-11-24T09:47:20.729Z,79.67
2022-11-24T09:50:05.387Z,79.89
2022-11-24T09:52:41.959Z,79.66
2022-11-24T09:55:37.062Z,79.58
2022-11-24T09:58:45.478Z,79.96
2022-11-24T10:01:20.050Z,80.00
2022-11-24T10:03:51.149Z,80.16
2022-11-24T10:06:34.799Z,80.12
2022-11-24T10:09:30.705Z,80.42
2022-11-24T10:12:36.850Z,80.49
2022-11-24T10:15:21.836Z,80.44
2022-11-24T10:18:13.273Z,80.49
2022-11-24T10:21:18.192Z,80.56
2022-11-24T10:23:58.551Z,80.64
2022-11-24T10:26:36.553Z,80.87
2022-11-24T10:29:38.010Z,80.43
2022-11-24T10:32:16.313Z,80.35
2022-11-24T10:34:52.173Z,80.80
2022-11-24T10:37:26.694Z,81.03
2022-11-24T10:40:00.385Z,81.12
2022-11-24T10:42:32.154Z,81.25
2022-11-24T10:45:22.651Z,81.11
2022-11-24T10:47:51.030Z,80.86
2022-11-24T10:50:28.112Z,80.85
2022-11-24T10:53:05.707Z,80.99
2022-11-24T10:55:58.566Z,81.08
2022-11-24T10:58:28.075Z,81.40
2022-11-24T11:01:01.070Z,81.21
2022-11-24T11:03:33.360Z,80.85
2022-11-24T11:06:25.863Z,80.97
2022-11-24T11:09:09.400Z,81.53
2022-11-24T11:11:39.518Z,81.36
2022-11-24T11:14:11.126Z,81.36
2022-11-24T11:16:53.275Z,81.39
2022-11-24T11:19:54.376Z,81.37
2022-11-24T11:22:28.842Z,81.27
2022-11-24T11:25:14.829Z,81.40
2022-11-24T11:27:43.313Z,81.72
2022-11-24T11:36:12.010Z,81.58
2022-11-24T11:38:41.848Z,81.53
2022-11-24T11:41:22.208Z,81.50
2022-11-24T11:43:59.085Z,81.34
2022-11-24T11:46:31.534Z,81.58
2022-11-24T11:49:00.450Z,81.78
2022-11-24T11:55:05.716Z,81.83
2022-11-24T11:57:47.095Z,81.71
2022-11-24T12:00:22.102Z,81.73
2022-11-24T12:02:56.484Z,81.42
2022-11-24T12:05:43.772Z,81.87
2022-11-24T12:09:18.795Z,81.99
2022-11-24T12:12:11.356Z,82.07
2022-11-24T12:15:05.949Z,81.95
2022-11-24T12:18:21.643Z,81.91
2022-11-24T12:21:06.809Z,81.86
2022-11-24T12:23:59.352Z,82.15
2022-11-24T12:26:49.339Z,82.03
2022-11-24T12:29:39.424Z,82.16
2022-11-24T12:32:33.406Z,82.32
2022-11-24T12:35:19.599Z,81.88
2022-11-24T12:38:12.043Z,81.68
2022-11-24T12:41:18.357Z,81.90
2022-11-24T12:43:56.617Z,81.70
2022-11-24T12:47:03.014Z,81.79
2022-11-24T12:49:40.102Z,81.58
2022-11-24T12:52:31.897Z,81.49
2022-11-24T12:55:01.814Z,81.23
2022-11-24T12:58:10.795Z,81.32
2022-11-24T13:01:16.224Z,81.31
2022-11-24T13:04:04.228Z,81.22
2022-11-24T13:06:49.023Z,81.56
2022-11-24T13:09:17.983Z,81.25
2022-11-24T13:12:14.047Z,81.19
2022-11-24T13:14:44.947Z,81.31
2022-11-24T13:17:42.044Z,81.33
2022-11-24T13:20:19.508Z,81.31
2022-11-24T13:22:57.190Z,81.07
2022-11-24T13:25:29.018Z,81.26
2022-11-24T13:28:00.396Z,81.46
2022-11-24T13:30:34.815Z,81.17
2022-11-24T13:33:16.400Z,81.47
2022-11-24T13:36:11.917Z,81.37
2022-11-24T13:38:45.834Z,81.33
2022-11-24T13:41:32.404Z,81.41
2022-11-24T13:44:16.348Z,81.42
2022-11-24T13:47:32.574Z,81.34
2022-11-24T13:50:02.796Z,80.99
2022-11-24T13:52:42.130Z,81.24
2022-11-24T13:55:13.181Z,81.52
2022-11-24T13:57:48.102Z,81.48
2022-11-24T14:00:35.632Z,81.18
2022-11-24T14:03:26.795Z,81.31
2022-11-24T14:05:54.981Z,81.10
2022-11-24T14:08:28.927Z,81.04
2022-11-24T14:10:59.040Z,81.12
2022-11-24T14:13:28.140Z,81.04
2022-11-24T14:16:06.392Z,80.92
2022-11-24T14:18:36.366Z,81.04
2022-11-24T14:21:42.735Z,81.07
2022-11-24T14:24:42.789Z,80.89
2022-11-24T14:27:17.587Z,81.28
2022-11-24T14:29:54.667Z,81.16
2022-11-24T14:32:23.455Z,81.29
2022-11-24T14:34:52.336Z,81.13
2022-11-24T14:37:20.938Z,81.05
2022-11-24T14:39:49.311Z,81.01
2022-11-24T14:42:25.473Z,80.73
2022-11-24T14:45:00.198Z,80.47
2022-11-24T14:47:37.379Z,81.20
2022-11-24T14:50:23.203Z,81.24
2022-11-24T14:52:59.225Z,81.58
2022-11-24T14:55:32.628Z,81.57
2022-11-24T14:58:00.896Z,81.73
2022-11-24T15:00:31.803Z,81.55
2022-11-24T15:03:06.048Z,81.70
2022-11-24T15:06:03.817Z,82.02
2022-11-24T15:08:43.049Z,82.31
2022-11-24T15:11:11.325Z,82.58
2022-11-24T15:13:39.908Z,82.57
2022-11-24T15:16:16.141Z,82.24
2022-11-24T15:18:47.417Z,82.21
2022-11-24T15:21:19.466Z,82.30
2022-11-24T15:24:16.292Z,82.71
2022-11-24T15:26:45.428Z,82.36
2022-11-24T15:29:13.699Z,82.37
2022-11-24T15:31:47.741Z,82.43
2022-11-24T15:34:19.161Z,82.22
2022-11-24T15:36:47.229Z,82.29
2022-11-24T15:39:15.304Z,82.38
2022-11-24T15:41:43.478Z,82.41
2022-11-24T15:44:11.648Z,82.21
2022-11-24T15:46:40.292Z,82.18
2022-11-24T15:49:08.609Z,82.18
2022-11-24T15:51:42.722Z,82.07
2022-11-24T15:54:16.120Z,82.08
2022-11-24T15:56:44.709Z,82.13
2022-11-24T15:59:20.363Z,82.17
2022-11-24T16:01:50.924Z,81.95
2022-11-24T16:04:19.167Z,81.62
2022-11-24T16:06:48.149Z,81.67
2022-11-24T16:09:17.455Z,81.81
2022-11-24T16:11:45.624Z,81.36
2022-11-24T16:14:14.027Z,81.60
2022-11-24T16:16:42.510Z,82.14
2022-11-24T16:19:11.466Z,81.84
2022-11-24T16:21:39.545Z,81.85
2022-11-24T16:24:08.008Z,81.71
2022-11-24T16:26:36.097Z,81.63
2022-11-24T16:29:04.782Z,81.59
2022-11-24T16:31:33.127Z,81.40
2022-11-24T16:34:01.516Z,81.51
2022-11-24T16:36:29.925Z,81.77
2022-11-24T16:39:00.088Z,81.53
2022-11-24T16:41:28.315Z,81.73
2022-11-24T16:43:56.897Z,81.75
2022-11-24T16:46:25.539Z,81.95
2022-11-24T16:48:59.769Z,81.75
2022-11-24T16:51:34.212Z,81.63
2022-11-24T16:54:04.014Z,81.80
2022-11-24T16:56:32.418Z,81.58
2022-11-24T16:59:00.582Z,81.76
2022-11-24T17:01:30.253Z,81.84
2022-11-24T17:03:59.267Z,81.76
2022-11-24T17:06:28.151Z,81.49
2022-11-24T17:08:56.347Z,81.67
2022-11-24T17:11:26.568Z,81.69
2022-11-24T17:13:56.790Z,81.62
2022-11-24T17:16:26.165Z,81.45
2022-11-24T17:18:54.775Z,81.46
2022-11-24T17:21:25.100Z,81.54
2022-11-24T17:23:58.810Z,81.52
2022-11-24T17:26:27.799Z,81.36
2022-11-24T17:28:56.481Z,81.53
2022-11-24T17:31:32.300Z,81.60
2022-11-24T17:34:01.612Z,81.81
2022-11-24T17:36:32.235Z,81.74
2022-11-24T17:39:01.566Z,81.54
2022-11-24T17:41:30.252Z,81.39
2022-11-24T17:43:58.628Z,81.28
2022-11-24T17:46:28.688Z,81.15
2022-11-24T17:48:57.845Z,81.21
2022-11-24T17:51:27.145Z,81.31
2022-11-24T17:53:57.376Z,81.23
2022-11-24T17:56:27.596Z,81.28
2022-11-24T17:58:58.631Z,81.59
2022-11-24T18:01:30.223Z,81.64
2022-11-24T18:03:58.772Z,81.73
2022-11-24T18:06:28.925Z,81.57
2022-11-24T18:08:59.224Z,81.74
2022-11-24T18:11:32.314Z,81.89
2022-11-24T18:14:03.615Z,81.58
2022-11-24T18:16:34.705Z,81.92
2022-11-24T18:19:10.673Z,81.96
2022-11-24T18:21:41.473Z,81.86
2022-11-24T18:24:11.826Z,81.44
2022-11-24T18:26:41.092Z,81.43
2022-11-24T18:29:10.808Z,81.81
2022-11-24T18:31:39.579Z,81.84
2022-11-24T18:34:08.552Z,81.86
2022-11-24T18:36:37.072Z,81.74
2022-11-24T18:39:09.217Z,81.75
2022-11-24T18:41:37.313Z,81.58
2022-11-24T18:44:08.617Z,81.50
2022-11-24T18:46:38.251Z,81.34
2022-11-24T18:49:07.494Z,81.52
2022-11-24T18:51:36.057Z,81.84
2022-11-24T18:54:05.645Z,81.62
2022-11-24T18:56:34.032Z,81.80
2022-11-24T18:59:02.205Z,81.62
2022-11-24T19:01:30.945Z,81.55
2022-11-24T19:04:02.245Z,81.72
2022-11-24T19:06:32.925Z,81.67
2022-11-24T19:09:05.854Z,81.71
2022-11-24T19:11:37.286Z,81.89
2022-11-24T19:14:08.348Z,82.01
2022-11-24T19:16:37.451Z,81.77
2022-11-24T19:19:06.366Z,81.77
2022-11-24T19:21:37.359Z,81.49
2022-11-24T19:24:13.536Z,81.26
2022-11-24T19:26:42.028Z,81.56
2022-11-24T19:29:10.601Z,81.65
2022-11-24T19:31:44.260Z,81.49
2022-11-24T19:34:12.885Z,81.62
2022-11-24T19:36:43.417Z,81.46
2022-11-24T19:39:16.712Z,81.07
2022-11-24T19:41:45.186Z,81.15
2022-11-24T19:44:13.772Z,81.19
2022-11-24T19:46:41.843Z,81.48
2022-11-24T19:49:10.219Z,81.43
2022-11-24T19:51:40.043Z,81.54
2022-11-24T19:54:12.921Z,81.70
2022-11-24T19:56:42.216Z,81.38
2022-11-24T19:59:13.565Z,81.37
2022-11-24T20:01:42.791Z,81.34
2022-11-24T20:04:13.809Z,81.53
2022-11-24T20:06:44.230Z,81.47
2022-11-24T20:09:15.271Z,81.25
2022-11-24T20:11:44.144Z,81.37
2022-11-24T20:14:14.887Z,81.36
2022-11-24T20:16:45.635Z,81.29
2022-11-24T20:19:16.567Z,81.21
2022-11-24T20:21:48.195Z,81.38
2022-11-24T20:24:18.236Z,81.14
2022-11-24T20:26:58.390Z,81.33
2022-11-24T20:29:28.611Z,81.20
2022-11-24T20:31:57.379Z,81.10
2022-11-24T20:34:26.598Z,81.13
2022-11-24T20:36:54.773Z,81.10
2022-11-24T20:39:26.524Z,81.09
2022-11-24T20:41:55.565Z,81.00
2022-11-24T20:44:26.781Z,81.23
2022-11-24T20:46:57.024Z,81.45
2022-11-24T20:49:26.698Z,81.41
2022-11-24T20:51:57.550Z,81.25
2022-11-24T20:54:26.426Z,81.12
2022-11-24T20:56:54.905Z,81.06
2022-11-24T20:59:24.852Z,80.98
2022-11-24T21:01:55.688Z,81.18
2022-11-24T21:04:26.493Z,81.23
2022-11-24T21:06:55.381Z,81.40
2022-11-24T21:09:24.895Z,81.31
2022-11-24T21:11:55.006Z,81.51
2022-11-24T21:14:24.728Z,81.23
2022-11-24T21:16:53.237Z,81.17
2022-11-24T21:19:21.443Z,81.25
2022-11-24T21:21:53.475Z,81.43
2022-11-24T21:24:33.593Z,81.33
2022-11-24T21:27:02.948Z,81.38
2022-11-24T21:29:31.166Z,81.32
2022-11-24T21:31:59.882Z,81.49
2022-11-24T21:34:28.031Z,81.39
2022-11-24T21:36:56.197Z,81.08
2022-11-24T21:39:24.401Z,80.93
2022-11-24T21:41:53.010Z,81.13
2022-11-24T21:44:23.959Z,81.25
2022-11-24T21:46:56.322Z,81.21
2022-11-24T21:49:26.071Z,81.23
2022-11-24T21:51:57.062Z,81.37
2022-11-24T21:54:26.724Z,81.22
2022-11-24T21:56:58.789Z,81.12
2022-11-24T21:59:26.962Z,80.87
2022-11-24T22:01:55.275Z,80.99
2022-11-24T22:04:23.526Z,81.06
2022-11-24T22:06:53.634Z,81.04
2022-11-24T22:09:21.704Z,81.04
2022-11-24T22:11:49.980Z,80.96
2022-11-24T22:14:18.785Z,80.98
2022-11-24T22:16:47.041Z,80.88
2022-11-24T22:19:15.326Z,80.88
2022-11-24T22:21:43.495Z,81.05
2022-11-24T22:24:11.980Z,80.99
2022-11-24T22:26:40.149Z,81.33
2022-11-24T22:29:08.611Z,81.09
2022-11-24T22:31:36.800Z,81.04
2022-11-24T22:34:05.080Z,81.06
2022-11-24T22:36:33.460Z,80.92
2022-11-24T22:39:03.653Z,80.70
2022-11-24T22:41:34.104Z,80.84
2022-11-24T22:44:02.590Z,81.04
2022-11-24T22:46:32.085Z,81.02
2022-11-24T22:49:01.812Z,80.79
2022-11-24T22:51:33.256Z,80.89
2022-11-24T22:54:03.676Z,80.87
2022-11-24T22:56:33.493Z,80.61
2022-11-24T22:59:02.573Z,80.68
2022-11-24T23:01:33.901Z,80.62
2022-11-24T23:04:04.083Z,80.77
2022-11-24T23:06:33.662Z,80.75
2022-11-24T23:09:04.187Z,80.66
2022-11-24T23:11:38.210Z,80.84
2022-11-24T23:14:15.828Z,80.68
2022-11-24T23:16:44.382Z,80.63
2022-11-24T23:19:12.650Z,80.44
2022-11-24T23:21:40.722Z,80.60
2022-11-24T23:24:10.657Z,80.70
2022-11-24T23:26:40.861Z,80.72
2022-11-24T23:29:10.811Z,80.57
2022-11-24T23:31:42.254Z,80.74
2022-11-24T23:34:10.508Z,80.60
2022-11-24T23:36:38.977Z,80.54
2022-11-24T23:39:09.306Z,80.68
2022-11-24T23:41:37.789Z,80.83
2022-11-24T23:44:07.078Z,80.93
2022-11-24T23:46:35.671Z,80.92
2022-11-24T23:49:04.045Z,80.98
2022-11-24T23:51:33.754Z,80.82
2022-11-24T23:56:47.306Z,80.59
2022-11-24T23:59:17.528Z,80.93
